Capitol Logistics 618


MROC
Juan Santamar?a International Airport
San Jose, CR
KMIA
Miami International Airport
Miami, US

Activity Log

Date Flight Route Aircraft Duration
08/28/2020 CPX618 UCA UA301 URSUS FLIPR6 B763 2h 41m
06/21/2019 CPX718 UCA UA301 URSUS FLIPR6 B763 2h 37m

Route Details

Aircraft Information
Primary: Boeing 767-300BDSF
Backup: Not Available
Route Data
Distance: 976nm
Sched. Duration: 2h 29m
Avg. Duration: 2h 39m (+10m)
Times Flown: 2
Recm'd Route: UCA UA301 URSUS FLIPR6
Planned Altitude: 34,000ft
Origin Wx: MROC 291300Z 07008KT CAVOK 22/19 A2998 NOSIG
Dest. Wx: KMIA 291353Z 13010KT 10SM BKN020 29/24 A2999 RMK AO2 SLP154 T02890244
Notes:

Financial History
Total Freight: 165,872lbs
Average Load: 82,936lbs/flt
Fuel Used: 46,204lbs
Avg. Fuel Used: 23,102lbs/flt
Fuel Expense: $28,646
Avg. Fuel Expense: $14,323
Avg. Fuel Cost: $0.62/lbs
Total Gross Income: $315,576
Pilot Pay: $388
Total Expenses: $34,186
Total Revenue: $251,535
Average Revenue: $157,787.84